createdAt,value
2017-09-11T00:00:33.359Z,8.70
2017-09-11T00:03:08.065Z,9.03
2017-09-11T00:05:42.706Z,9.10
2017-09-11T00:08:19.482Z,8.73
2017-09-11T00:10:53.906Z,8.87
2017-09-11T00:13:28.858Z,7.93
2017-09-11T00:16:03.308Z,8.33
2017-09-11T00:18:37.947Z,7.60
2017-09-11T00:21:12.505Z,8.07
2017-09-11T00:23:50.149Z,7.60
2017-09-11T00:26:24.821Z,8.63
2017-09-11T00:28:59.462Z,8.93
2017-09-11T00:31:34.069Z,8.43
2017-09-11T00:34:08.570Z,8.53
2017-09-11T00:36:43.169Z,9.90
2017-09-11T00:39:17.820Z,7.70
2017-09-11T00:41:52.463Z,8.40
2017-09-11T00:44:26.804Z,8.93
2017-09-11T00:47:01.104Z,8.10
2017-09-11T00:49:35.656Z,8.37
2017-09-11T00:52:09.856Z,7.27
2017-09-11T00:54:43.747Z,8.13
2017-09-11T00:57:18.326Z,7.00
2017-09-11T00:59:52.838Z,8.20
2017-09-11T01:02:27.395Z,7.50
2017-09-11T01:05:03.070Z,7.70
2017-09-11T01:07:42.103Z,8.43
2017-09-11T01:10:18.158Z,9.43
2017-09-11T01:12:53.594Z,7.90
2017-09-11T01:15:28.970Z,8.47
2017-09-11T01:18:04.581Z,8.37
2017-09-11T01:20:41.624Z,9.00
2017-09-11T01:23:16.829Z,8.30
2017-09-11T01:25:51.055Z,8.43
2017-09-11T01:28:25.427Z,8.17
2017-09-11T01:30:59.534Z,8.70
2017-09-11T01:33:33.317Z,7.33
2017-09-11T01:36:07.850Z,9.67
2017-09-11T01:38:42.438Z,7.30
2017-09-11T01:41:19.228Z,8.60
2017-09-11T01:43:53.566Z,8.57
2017-09-11T01:46:28.889Z,7.93
2017-09-11T01:49:03.408Z,8.47
2017-09-11T01:51:37.757Z,8.83
2017-09-11T01:54:12.417Z,8.97
2017-09-11T01:56:46.990Z,8.00
2017-09-11T01:59:21.605Z,8.50
2017-09-11T02:01:57.671Z,7.70
2017-09-11T02:04:32.103Z,8.37
2017-09-11T02:07:06.730Z,8.33
2017-09-11T02:09:41.400Z,9.30
2017-09-11T02:12:15.901Z,8.60
2017-09-11T02:14:50.618Z,9.73
2017-09-11T02:17:25.074Z,8.40
2017-09-11T02:19:59.746Z,8.47
2017-09-11T02:22:34.289Z,10.00
2017-09-11T02:25:15.299Z,10.30
2017-09-11T02:27:49.942Z,10.13
2017-09-11T02:30:25.395Z,10.73
2017-09-11T02:33:00.042Z,10.23
2017-09-11T02:35:34.315Z,11.37
2017-09-11T02:38:08.940Z,10.30
2017-09-11T02:40:43.510Z,10.20
2017-09-11T02:43:17.955Z,9.53
2017-09-11T02:45:52.466Z,10.50
2017-09-11T02:48:28.613Z,9.10
2017-09-11T02:51:03.291Z,9.90
2017-09-11T02:53:37.946Z,9.07
2017-09-11T02:56:12.470Z,9.37
2017-09-11T02:58:46.954Z,9.97
2017-09-11T03:01:21.482Z,9.13
2017-09-11T03:03:55.947Z,9.97
2017-09-11T03:06:30.555Z,7.53
2017-09-11T03:09:04.486Z,8.60
2017-09-11T03:11:39.706Z,8.00
2017-09-11T03:14:14.313Z,7.87
2017-09-11T03:16:48.740Z,7.57
2017-09-11T03:19:23.182Z,6.60
2017-09-11T03:21:57.498Z,8.80
2017-09-11T03:24:32.203Z,7.30
2017-09-11T03:27:06.720Z,7.70
2017-09-11T03:29:44.026Z,7.20
2017-09-11T03:32:18.479Z,7.57
2017-09-11T03:34:53.809Z,8.30
2017-09-11T03:37:28.483Z,7.37
2017-09-11T03:40:13.333Z,6.63
2017-09-11T03:42:47.776Z,6.90
2017-09-11T03:45:22.367Z,7.93
2017-09-11T03:47:59.102Z,7.20
2017-09-11T03:50:33.708Z,6.80
2017-09-11T03:53:08.778Z,7.60
2017-09-11T03:55:43.253Z,7.40
2017-09-11T03:58:17.850Z,7.30
2017-09-11T04:00:52.433Z,7.20
2017-09-11T04:03:27.267Z,7.50
2017-09-11T04:06:01.954Z,7.03
2017-09-11T04:08:36.599Z,7.83
2017-09-11T04:11:11.184Z,6.50
2017-09-11T04:13:45.723Z,8.00
2017-09-11T04:16:20.346Z,7.50
2017-09-11T04:18:54.738Z,8.93
2017-09-11T04:21:29.547Z,7.63
2017-09-11T04:24:03.939Z,8.13
2017-09-11T04:26:38.611Z,8.03
2017-09-11T04:29:13.132Z,9.03
2017-09-11T04:31:47.714Z,10.13
2017-09-11T04:34:22.207Z,7.80
2017-09-11T04:36:56.794Z,9.23
2017-09-11T04:39:31.337Z,9.17
2017-09-11T04:42:05.754Z,9.20
2017-09-11T04:44:40.375Z,9.30
2017-09-11T04:47:14.915Z,9.07
2017-09-11T04:49:49.340Z,10.80
2017-09-11T04:52:23.948Z,10.33
2017-09-11T04:54:58.492Z,9.37
2017-09-11T04:57:33.111Z,7.50
2017-09-11T05:00:15.562Z,8.00
2017-09-11T05:02:50.051Z,9.37
2017-09-11T05:05:24.296Z,8.40
2017-09-11T05:07:58.446Z,9.07
2017-09-11T05:10:32.965Z,8.27
2017-09-11T05:13:07.332Z,8.03
2017-09-11T05:15:41.849Z,9.07
2017-09-11T05:18:16.427Z,9.33
2017-09-11T05:20:51.004Z,8.20
2017-09-11T05:23:25.489Z,8.60
2017-09-11T05:26:00.150Z,8.57
2017-09-11T05:28:34.682Z,10.97
2017-09-11T05:31:09.315Z,14.43
2017-09-11T05:33:43.965Z,12.13
2017-09-11T05:36:18.568Z,13.80
2017-09-11T05:38:52.988Z,14.83
2017-09-11T05:41:27.418Z,12.00
2017-09-11T05:44:02.042Z,12.50
2017-09-11T05:46:36.610Z,12.30
2017-09-11T05:49:11.103Z,19.10
2017-09-11T05:51:45.655Z,14.53
2017-09-11T05:54:20.077Z,17.17
2017-09-11T05:56:54.771Z,13.30
2017-09-11T05:59:29.429Z,15.50
2017-09-11T06:02:03.877Z,13.47
2017-09-11T06:04:38.553Z,9.87
2017-09-11T06:07:13.191Z,12.40
2017-09-11T06:09:47.935Z,13.17
2017-09-11T06:12:22.566Z,9.90
2017-09-11T06:14:57.126Z,11.83
2017-09-11T06:17:31.768Z,9.17
2017-09-11T06:20:14.510Z,11.90
2017-09-11T06:22:48.990Z,10.43
2017-09-11T06:25:23.542Z,12.87
2017-09-11T06:27:58.119Z,9.73
2017-09-11T06:30:33.046Z,7.97
2017-09-11T06:33:07.517Z,11.00
2017-09-11T06:35:42.140Z,9.77
2017-09-11T06:38:16.761Z,9.87
2017-09-11T06:40:51.271Z,7.67
2017-09-11T06:43:25.857Z,9.13
2017-09-11T06:46:00.419Z,10.87
2017-09-11T06:48:34.897Z,7.70
2017-09-11T06:51:09.494Z,7.00
2017-09-11T06:53:44.167Z,6.70
2017-09-11T06:56:18.799Z,7.63
2017-09-11T06:58:53.363Z,6.47
2017-09-11T07:01:27.971Z,5.20
2017-09-11T07:04:02.645Z,6.40
2017-09-11T07:06:37.238Z,5.23
2017-09-11T07:09:11.950Z,5.40
2017-09-11T07:11:46.566Z,6.17
2017-09-11T07:14:20.991Z,5.97
2017-09-11T07:16:56.378Z,5.23
2017-09-11T07:19:30.955Z,6.37
2017-09-11T07:22:05.628Z,5.43
2017-09-11T07:24:40.334Z,6.33
2017-09-11T07:27:14.778Z,6.10
2017-09-11T07:29:49.337Z,7.00
2017-09-11T07:32:23.974Z,6.23
2017-09-11T07:34:58.418Z,6.03
2017-09-11T07:37:33.030Z,4.33
2017-09-11T07:40:14.283Z,4.80
2017-09-11T07:42:48.882Z,3.90
2017-09-11T07:45:23.473Z,4.40
2017-09-11T07:47:58.081Z,5.00
2017-09-11T07:50:32.698Z,5.27
2017-09-11T07:53:07.258Z,4.30
2017-09-11T07:55:41.803Z,4.40
2017-09-11T07:58:16.834Z,4.40
2017-09-11T08:00:51.352Z,4.80
2017-09-11T08:03:26.008Z,4.90
2017-09-11T08:06:00.511Z,3.90
2017-09-11T08:08:35.115Z,4.30
2017-09-11T08:11:09.710Z,4.40
2017-09-11T08:13:44.399Z,3.43
2017-09-11T08:16:18.953Z,3.97
2017-09-11T08:18:53.638Z,4.57
2017-09-11T08:21:28.218Z,3.87
2017-09-11T08:24:02.727Z,4.30
2017-09-11T08:26:37.282Z,3.80
2017-09-11T08:29:11.779Z,4.00
2017-09-11T08:31:46.412Z,4.00
2017-09-11T08:34:20.886Z,3.57
2017-09-11T08:36:55.209Z,3.00
2017-09-11T08:39:29.806Z,5.00
2017-09-11T08:42:04.354Z,4.40
2017-09-11T08:44:38.965Z,5.17
2017-09-11T08:47:13.498Z,3.90
2017-09-11T08:49:48.165Z,4.60
2017-09-11T08:52:22.690Z,3.80
2017-09-11T08:54:57.300Z,4.50
2017-09-11T09:01:08.998Z,3.47
2017-09-11T09:03:43.581Z,4.10
2017-09-11T09:06:18.069Z,4.30
2017-09-11T09:08:52.623Z,4.47
2017-09-11T09:11:27.372Z,4.30
2017-09-11T09:14:01.994Z,4.20
2017-09-11T09:16:36.546Z,3.33
2017-09-11T09:19:11.098Z,4.57
2017-09-11T09:21:45.706Z,4.47
2017-09-11T09:24:20.122Z,5.17
2017-09-11T09:26:54.667Z,5.00
2017-09-11T09:29:29.190Z,4.57
2017-09-11T09:32:03.698Z,3.83
2017-09-11T09:34:38.451Z,5.70
2017-09-11T09:37:12.870Z,4.63
2017-09-11T09:39:47.357Z,4.40
2017-09-11T09:42:22.010Z,4.67
2017-09-11T09:44:56.439Z,5.40
2017-09-11T09:47:31.026Z,5.63
2017-09-11T09:50:14.484Z,5.93
2017-09-11T09:52:49.183Z,6.60
2017-09-11T09:55:23.841Z,6.40
2017-09-11T09:57:58.341Z,5.23
2017-09-11T10:00:33.130Z,7.40
2017-09-11T10:03:07.815Z,5.17
2017-09-11T10:05:42.359Z,4.83
2017-09-11T10:08:17.073Z,4.90
2017-09-11T10:10:51.599Z,4.37
2017-09-11T10:13:26.179Z,4.50
2017-09-11T10:16:00.702Z,5.07
2017-09-11T10:18:35.347Z,5.57
2017-09-11T10:21:09.903Z,5.60
2017-09-11T10:23:44.398Z,4.60
2017-09-11T10:26:18.999Z,4.93
2017-09-11T10:28:53.569Z,4.60
2017-09-11T10:31:27.984Z,4.93
2017-09-11T10:34:02.566Z,5.20
2017-09-11T10:36:37.074Z,5.03
2017-09-11T10:39:11.775Z,4.13
2017-09-11T10:41:46.313Z,5.33
2017-09-11T10:44:20.870Z,6.37
2017-09-11T10:46:55.422Z,5.90
2017-09-11T10:49:30.070Z,6.00
2017-09-11T10:52:04.539Z,5.20
2017-09-11T10:54:39.272Z,5.53
2017-09-11T10:57:13.818Z,4.60
2017-09-11T10:59:48.298Z,5.30
2017-09-11T11:02:22.898Z,5.00
2017-09-11T11:04:57.561Z,4.87
2017-09-11T11:07:31.948Z,5.27
2017-09-11T11:10:13.797Z,6.30
2017-09-11T11:12:48.510Z,6.17
2017-09-11T11:15:23.066Z,5.93
2017-09-11T11:17:57.703Z,4.97
2017-09-11T11:20:32.350Z,6.50
2017-09-11T11:23:06.928Z,5.50
2017-09-11T11:25:41.478Z,5.07
2017-09-11T11:28:16.107Z,7.30
2017-09-11T11:30:50.643Z,6.43
2017-09-11T11:33:25.109Z,5.90
2017-09-11T11:35:59.647Z,5.77
2017-09-11T11:38:34.137Z,9.73
2017-09-11T11:41:08.664Z,8.40
2017-09-11T11:43:43.226Z,7.50
2017-09-11T11:46:17.712Z,7.90
2017-09-11T11:48:52.341Z,6.80
2017-09-11T11:51:26.874Z,6.93
2017-09-11T11:54:01.389Z,7.90
2017-09-11T11:56:36.001Z,7.43
2017-09-11T11:59:10.574Z,7.93
2017-09-11T12:01:45.191Z,7.07
2017-09-11T12:04:19.643Z,6.63
2017-09-11T12:06:54.254Z,7.00
2017-09-11T12:09:28.755Z,7.13
2017-09-11T12:12:03.353Z,7.73
2017-09-11T12:14:37.854Z,8.50
2017-09-11T12:17:12.448Z,5.90
2017-09-11T12:19:47.176Z,7.50
2017-09-11T12:22:21.747Z,7.90
2017-09-11T12:24:56.399Z,5.77
2017-09-11T12:27:31.032Z,9.80
2017-09-11T12:30:14.915Z,7.67
2017-09-11T12:32:49.491Z,9.07
2017-09-11T12:35:23.870Z,8.33
2017-09-11T12:37:58.244Z,7.60
2017-09-11T12:40:32.726Z,8.50
2017-09-11T12:43:07.167Z,7.47
2017-09-11T12:45:42.505Z,8.70
2017-09-11T12:48:17.156Z,6.90
2017-09-11T12:50:51.772Z,7.87
2017-09-11T12:53:26.215Z,7.43
2017-09-11T12:56:00.775Z,7.60
2017-09-11T12:58:35.383Z,8.13
2017-09-11T13:01:09.907Z,7.40
2017-09-11T13:03:44.507Z,7.00
2017-09-11T13:06:19.056Z,7.40
2017-09-11T13:08:53.550Z,8.87
2017-09-11T13:11:28.063Z,8.20
2017-09-11T13:14:03.019Z,8.47
2017-09-11T13:16:37.594Z,7.90
2017-09-11T13:19:12.219Z,9.13
2017-09-11T13:21:46.762Z,8.10
2017-09-11T13:24:21.259Z,9.37
2017-09-11T13:26:55.781Z,8.97
2017-09-11T13:29:30.437Z,8.97
2017-09-11T13:32:05.022Z,8.27
2017-09-11T13:34:39.566Z,9.17
2017-09-11T13:37:14.412Z,10.33
2017-09-11T13:39:48.817Z,10.23
2017-09-11T13:42:23.362Z,9.20
2017-09-11T13:44:57.894Z,8.33
2017-09-11T13:47:32.523Z,8.03
2017-09-11T13:50:14.090Z,8.27
2017-09-11T13:52:49.190Z,7.32
2017-09-11T13:55:23.998Z,8.80
2017-09-11T13:57:58.658Z,9.57
2017-09-11T14:00:33.286Z,6.67
2017-09-11T14:03:07.906Z,8.93
2017-09-11T14:05:42.323Z,9.23
2017-09-11T14:08:16.757Z,10.10
2017-09-11T14:10:51.235Z,8.10
2017-09-11T14:13:25.572Z,7.43
2017-09-11T14:16:00.131Z,7.40
2017-09-11T14:18:34.826Z,9.03
2017-09-11T14:21:10.954Z,8.27
2017-09-11T14:23:45.527Z,6.80
2017-09-11T14:26:20.096Z,8.00
2017-09-11T14:28:54.986Z,7.03
2017-09-11T14:31:29.526Z,8.30
2017-09-11T14:34:04.235Z,8.63
2017-09-11T14:36:38.689Z,7.97
2017-09-11T14:39:13.046Z,6.73
2017-09-11T14:41:47.761Z,7.90
2017-09-11T14:44:22.381Z,6.80
2017-09-11T14:46:57.006Z,7.30
2017-09-11T14:49:31.467Z,8.80
2017-09-11T14:52:05.997Z,7.67
2017-09-11T14:54:40.624Z,8.00
2017-09-11T14:57:15.223Z,7.60
2017-09-11T14:59:49.766Z,7.00
2017-09-11T15:02:25.194Z,6.00
2017-09-11T15:04:59.487Z,6.20
2017-09-11T15:07:33.819Z,5.90
2017-09-11T15:10:22.126Z,6.83
2017-09-11T15:12:56.579Z,7.10
2017-09-11T15:15:31.023Z,6.13
2017-09-11T15:18:05.511Z,6.70
2017-09-11T15:20:40.067Z,5.93
2017-09-11T15:23:16.044Z,5.80
2017-09-11T15:25:50.776Z,6.70
2017-09-11T15:28:25.277Z,6.67
2017-09-11T15:30:59.801Z,6.60
2017-09-11T15:33:34.474Z,5.27
2017-09-11T15:36:09.036Z,6.00
2017-09-11T15:38:43.339Z,5.77
2017-09-11T15:41:17.850Z,5.53
2017-09-11T15:43:52.548Z,6.90
2017-09-11T15:46:27.226Z,5.40
2017-09-11T15:49:01.689Z,5.60
2017-09-11T15:51:36.257Z,4.87
2017-09-11T15:54:10.478Z,4.20
2017-09-11T15:56:45.215Z,3.77
2017-09-11T15:59:19.727Z,4.17
2017-09-11T16:01:54.413Z,3.97
2017-09-11T16:04:28.867Z,4.07
2017-09-11T16:07:03.521Z,4.50
2017-09-11T16:09:38.082Z,4.10
2017-09-11T16:12:12.738Z,4.33
2017-09-11T16:14:48.073Z,4.30
2017-09-11T16:17:22.502Z,4.23
2017-09-11T16:19:56.964Z,4.70
2017-09-11T16:22:31.475Z,5.17
2017-09-11T16:25:06.266Z,4.57
2017-09-11T16:27:40.614Z,5.10
2017-09-11T16:30:15.503Z,5.70
2017-09-11T16:32:49.734Z,4.30
2017-09-11T16:35:24.365Z,6.20
2017-09-11T16:37:58.531Z,5.40
2017-09-11T16:40:33.946Z,6.17
2017-09-11T16:43:08.912Z,5.50
2017-09-11T16:45:43.643Z,7.90
2017-09-11T16:48:18.301Z,6.23
2017-09-11T16:50:52.947Z,6.87
2017-09-11T16:53:27.772Z,6.83
2017-09-11T16:56:02.187Z,6.60
2017-09-11T16:58:36.705Z,6.93
2017-09-11T17:01:11.442Z,7.33
2017-09-11T17:03:45.974Z,5.97
2017-09-11T17:06:20.542Z,7.27
2017-09-11T17:08:55.181Z,6.87
2017-09-11T17:11:29.809Z,7.10
2017-09-11T17:14:04.391Z,7.03
2017-09-11T17:16:38.950Z,6.57
2017-09-11T17:19:13.890Z,7.80
2017-09-11T17:21:48.402Z,6.63
2017-09-11T17:24:22.969Z,8.60
2017-09-11T17:26:57.530Z,7.20
2017-09-11T17:29:32.191Z,6.97
2017-09-11T17:32:06.974Z,6.93
2017-09-11T17:34:41.671Z,7.70
2017-09-11T17:37:16.095Z,5.93
2017-09-11T17:39:50.378Z,5.70
2017-09-11T17:42:24.797Z,5.20
2017-09-11T17:44:59.577Z,4.93
2017-09-11T17:47:33.942Z,4.97
2017-09-11T17:50:15.295Z,4.10
2017-09-11T17:52:50.233Z,4.27
2017-09-11T17:55:24.925Z,4.23
2017-09-11T17:57:59.440Z,3.10
2017-09-11T18:00:34.003Z,3.40
2017-09-11T18:03:08.690Z,3.00
2017-09-11T18:05:43.306Z,2.73
2017-09-11T18:08:17.955Z,2.57
2017-09-11T18:10:52.467Z,2.90
2017-09-11T18:13:26.850Z,2.80
2017-09-11T18:16:01.734Z,2.30
2017-09-11T18:18:36.202Z,2.03
2017-09-11T18:21:10.761Z,2.60
2017-09-11T18:23:45.459Z,1.90
2017-09-11T18:26:20.071Z,2.40
2017-09-11T18:28:54.545Z,1.83
2017-09-11T18:31:29.039Z,2.20
2017-09-11T18:34:05.162Z,1.83
2017-09-11T18:36:39.718Z,2.07
2017-09-11T18:39:15.714Z,2.10
2017-09-11T18:41:50.449Z,2.33
2017-09-11T18:44:25.023Z,2.73
2017-09-11T18:46:59.673Z,2.60
2017-09-11T18:49:34.452Z,2.43
2017-09-11T18:52:09.045Z,2.07
2017-09-11T18:54:43.787Z,2.70
2017-09-11T18:57:18.954Z,2.87
2017-09-11T18:59:53.991Z,2.53
2017-09-11T19:02:28.565Z,2.60
2017-09-11T19:05:04.303Z,2.23
2017-09-11T19:07:38.801Z,1.90
2017-09-11T19:10:15.998Z,2.70
2017-09-11T19:12:50.461Z,2.80
2017-09-11T19:15:24.981Z,3.50
2017-09-11T19:17:59.707Z,2.87
2017-09-11T19:20:34.303Z,2.60
2017-09-11T19:23:08.751Z,2.47
2017-09-11T19:25:43.394Z,2.10
2017-09-11T19:28:17.974Z,2.27
2017-09-11T19:30:52.739Z,1.70
2017-09-11T19:33:27.275Z,2.40
2017-09-11T19:36:01.942Z,2.40
2017-09-11T19:38:36.459Z,2.20
2017-09-11T19:41:10.913Z,2.40
2017-09-11T19:43:45.357Z,1.93
2017-09-11T19:46:20.053Z,4.03
2017-09-11T19:48:54.544Z,2.50
2017-09-11T19:51:29.166Z,1.97
2017-09-11T19:54:03.882Z,2.03
2017-09-11T19:56:38.446Z,1.60
2017-09-11T19:59:13.746Z,1.93
2017-09-11T20:01:48.550Z,2.37
2017-09-11T20:04:23.137Z,1.50
2017-09-11T20:06:57.648Z,1.70
2017-09-11T20:09:32.158Z,1.43
2017-09-11T20:12:06.953Z,1.50
2017-09-11T20:14:41.623Z,1.50
2017-09-11T20:17:46.474Z,2.03
2017-09-11T20:20:21.059Z,2.23
2017-09-11T20:22:55.686Z,1.63
2017-09-11T20:25:30.270Z,1.90
2017-09-11T20:28:04.850Z,1.97
2017-09-11T20:30:39.417Z,1.60
2017-09-11T20:33:14.655Z,1.60
2017-09-11T20:35:49.226Z,1.40
2017-09-11T20:38:23.824Z,2.00
2017-09-11T20:40:58.190Z,2.07
2017-09-11T20:43:32.794Z,2.73
2017-09-11T20:46:07.296Z,1.57
2017-09-11T20:48:42.461Z,1.87
2017-09-11T20:51:16.970Z,2.27
2017-09-11T20:53:51.676Z,2.90
2017-09-11T20:56:27.256Z,3.57
2017-09-11T20:59:05.872Z,2.37
2017-09-11T21:01:40.614Z,1.73
2017-09-11T21:04:15.415Z,1.47
2017-09-11T21:06:50.730Z,2.00
2017-09-11T21:09:25.254Z,2.30
2017-09-11T21:12:00.029Z,2.20
2017-09-11T21:14:34.258Z,2.90
2017-09-11T21:17:08.826Z,1.60
2017-09-11T21:19:43.224Z,1.73
2017-09-11T21:22:17.795Z,2.10
2017-09-11T21:24:52.386Z,3.10
2017-09-11T21:27:26.875Z,1.50
2017-09-11T21:30:01.479Z,1.90
2017-09-11T21:32:37.499Z,1.13
2017-09-11T21:35:14.834Z,1.30
2017-09-11T21:37:49.463Z,1.63
2017-09-11T21:40:23.969Z,2.20
2017-09-11T21:42:58.458Z,1.40
2017-09-11T21:45:33.050Z,1.70
2017-09-11T21:48:07.464Z,1.40
2017-09-11T21:50:41.971Z,1.57
2017-09-11T21:53:16.906Z,1.33
2017-09-11T21:55:51.413Z,1.20
2017-09-11T21:58:25.842Z,2.10
2017-09-11T22:01:00.423Z,1.50
2017-09-11T22:03:34.898Z,1.47
2017-09-11T22:06:09.413Z,1.67
2017-09-11T22:08:43.994Z,1.20
2017-09-11T22:11:18.577Z,1.23
2017-09-11T22:13:53.338Z,1.40
2017-09-11T22:16:28.010Z,1.50
2017-09-11T22:19:02.578Z,1.20
2017-09-11T22:21:37.063Z,1.23
2017-09-11T22:24:11.598Z,1.10
2017-09-11T22:26:46.311Z,1.50
2017-09-11T22:29:20.763Z,1.50
2017-09-11T22:31:55.358Z,1.10
2017-09-11T22:34:29.931Z,1.10
2017-09-11T22:37:04.712Z,1.67
2017-09-11T22:39:39.976Z,1.20
2017-09-11T22:42:14.434Z,1.40
2017-09-11T22:44:49.460Z,1.33
2017-09-11T22:47:23.918Z,1.10
2017-09-11T22:49:58.332Z,1.10
2017-09-11T22:52:32.827Z,1.30
2017-09-11T22:55:14.374Z,0.87
2017-09-11T22:57:48.890Z,1.60
2017-09-11T23:00:23.306Z,2.10
2017-09-11T23:02:57.847Z,1.33
2017-09-11T23:05:33.221Z,1.83
2017-09-11T23:08:07.851Z,1.80
2017-09-11T23:10:42.678Z,1.00
2017-09-11T23:13:17.207Z,1.73
2017-09-11T23:15:51.767Z,0.90
2017-09-11T23:18:26.251Z,1.13
2017-09-11T23:21:00.829Z,1.03
2017-09-11T23:23:35.348Z,1.10
2017-09-11T23:26:09.950Z,1.20
2017-09-11T23:28:44.707Z,1.23
2017-09-11T23:31:19.330Z,1.30
2017-09-11T23:33:53.886Z,1.10
2017-09-11T23:36:28.358Z,1.37
2017-09-11T23:39:02.920Z,1.13
2017-09-11T23:41:37.403Z,1.40
2017-09-11T23:44:12.007Z,1.50
2017-09-11T23:46:46.722Z,1.60
2017-09-11T23:49:21.261Z,2.07
2017-09-11T23:51:55.810Z,1.87
2017-09-11T23:54:30.338Z,1.53
2017-09-11T23:57:05.083Z,1.80
2017-09-11T23:59:39.534Z,2.50
